sensor_id;sensor_type;location;lat;lon;timestamp;temperature;humidity
13354;DHT22;6746;50.892;4.064;2023-02-28T00:00:08;1.30;99.90
13354;DHT22;6746;50.892;4.064;2023-02-28T00:02:46;1.30;99.90
13354;DHT22;6746;50.892;4.064;2023-02-28T00:05:34;1.30;99.90
13354;DHT22;6746;50.892;4.064;2023-02-28T00:08:22;1.20;99.90
13354;DHT22;6746;50.892;4.064;2023-02-28T00:11:11;1.10;99.90
13354;DHT22;6746;50.892;4.064;2023-02-28T00:13:58;1.20;99.90
13354;DHT22;6746;50.892;4.064;2023-02-28T00:16:40;1.20;99.90
13354;DHT22;6746;50.892;4.064;2023-02-28T00:19:18;1.10;99.90
13354;DHT22;6746;50.892;4.064;2023-02-28T00:21:56;1.10;99.90
13354;DHT22;6746;50.892;4.064;2023-02-28T00:24:34;1.10;99.90
13354;DHT22;6746;50.892;4.064;2023-02-28T00:27:22;1.10;99.90
13354;DHT22;6746;50.892;4.064;2023-02-28T00:30:06;1.10;99.90
13354;DHT22;6746;50.892;4.064;2023-02-28T00:32:44;1.10;99.90
13354;DHT22;6746;50.892;4.064;2023-02-28T00:35:32;1.10;99.90
13354;DHT22;6746;50.892;4.064;2023-02-28T00:38:20;1.00;99.90
13354;DHT22;6746;50.892;4.064;2023-02-28T00:41:04;1.00;99.90
13354;DHT22;6746;50.892;4.064;2023-02-28T00:43:42;1.00;99.90
13354;DHT22;6746;50.892;4.064;2023-02-28T00:46:30;1.00;99.90
13354;DHT22;6746;50.892;4.064;2023-02-28T00:49:12;1.00;99.90
13354;DHT22;6746;50.892;4.064;2023-02-28T00:51:50;1.00;99.90
13354;DHT22;6746;50.892;4.064;2023-02-28T00:54:36;1.00;99.90
13354;DHT22;6746;50.892;4.064;2023-02-28T00:57:14;1.00;99.90
13354;DHT22;6746;50.892;4.064;2023-02-28T00:59:55;0.90;99.90
13354;DHT22;6746;50.892;4.064;2023-02-28T01:02:33;0.90;99.90
13354;DHT22;6746;50.892;4.064;2023-02-28T01:05:11;0.90;99.90
13354;DHT22;6746;50.892;4.064;2023-02-28T01:07:50;0.90;99.90
13354;DHT22;6746;50.892;4.064;2023-02-28T01:10:38;0.90;99.90
13354;DHT22;6746;50.892;4.064;2023-02-28T01:13:26;0.90;99.90
13354;DHT22;6746;50.892;4.064;2023-02-28T01:16:14;0.90;99.90
13354;DHT22;6746;50.892;4.064;2023-02-28T01:19:02;0.90;99.90
13354;DHT22;6746;50.892;4.064;2023-02-28T01:21:43;0.90;99.90
13354;DHT22;6746;50.892;4.064;2023-02-28T01:24:22;0.90;99.90
13354;DHT22;6746;50.892;4.064;2023-02-28T01:27:03;0.90;99.90
13354;DHT22;6746;50.892;4.064;2023-02-28T01:29:41;0.80;99.90
13354;DHT22;6746;50.892;4.064;2023-02-28T01:32:21;0.80;99.90
13354;DHT22;6746;50.892;4.064;2023-02-28T01:34:59;0.80;99.90
13354;DHT22;6746;50.892;4.064;2023-02-28T01:37:47;0.80;99.90
13354;DHT22;6746;50.892;4.064;2023-02-28T01:40:36;0.80;99.90
13354;DHT22;6746;50.892;4.064;2023-02-28T01:43:28;0.80;99.90
13354;DHT22;6746;50.892;4.064;2023-02-28T01:45:56;0.80;99.90
13354;DHT22;6746;50.892;4.064;2023-02-28T01:48:40;0.80;99.90
13354;DHT22;6746;50.892;4.064;2023-02-28T01:51:26;0.80;99.90
13354;DHT22;6746;50.892;4.064;2023-02-28T01:54:11;0.90;99.90
13354;DHT22;6746;50.892;4.064;2023-02-28T01:56:50;0.90;99.90
13354;DHT22;6746;50.892;4.064;2023-02-28T01:59:33;0.80;99.90
13354;DHT22;6746;50.892;4.064;2023-02-28T02:02:08;0.80;99.90
13354;DHT22;6746;50.892;4.064;2023-02-28T02:04:50;0.80;99.90
13354;DHT22;6746;50.892;4.064;2023-02-28T02:07:30;0.80;99.90
13354;DHT22;6746;50.892;4.064;2023-02-28T02:10:21;0.80;99.90
13354;DHT22;6746;50.892;4.064;2023-02-28T02:32:00;0.60;99.90
13354;DHT22;6746;50.892;4.064;2023-02-28T02:37:36;0.60;99.90
13354;DHT22;6746;50.892;4.064;2023-02-28T02:40:15;0.60;99.90
13354;DHT22;6746;50.892;4.064;2023-02-28T02:48:27;0.50;99.90
13354;DHT22;6746;50.892;4.064;2023-02-28T02:51:09;0.50;99.90
13354;DHT22;6746;50.892;4.064;2023-02-28T02:56:53;0.40;99.90
13354;DHT22;6746;50.892;4.064;2023-02-28T02:59:32;0.40;99.90
13354;DHT22;6746;50.892;4.064;2023-02-28T03:02:11;0.40;99.90
13354;DHT22;6746;50.892;4.064;2023-02-28T03:04:56;0.30;99.90
13354;DHT22;6746;50.892;4.064;2023-02-28T03:07:40;0.40;99.90
13354;DHT22;6746;50.892;4.064;2023-02-28T03:10:29;0.30;99.90
13354;DHT22;6746;50.892;4.064;2023-02-28T03:16:34;0.30;99.90
13354;DHT22;6746;50.892;4.064;2023-02-28T03:22:24;0.20;99.90
13354;DHT22;6746;50.892;4.064;2023-02-28T03:25:30;0.20;99.90
13354;DHT22;6746;50.892;4.064;2023-02-28T03:27:29;0.20;99.90
13354;DHT22;6746;50.892;4.064;2023-02-28T03:30:18;0.20;99.90
13354;DHT22;6746;50.892;4.064;2023-02-28T03:33:05;0.10;99.90
13354;DHT22;6746;50.892;4.064;2023-02-28T03:36:06;0.10;99.90
13354;DHT22;6746;50.892;4.064;2023-02-28T03:38:56;0.10;99.90
13354;DHT22;6746;50.892;4.064;2023-02-28T03:41:43;0.10;99.90
13354;DHT22;6746;50.892;4.064;2023-02-28T03:44:30;0.10;99.90
13354;DHT22;6746;50.892;4.064;2023-02-28T03:47:11;0.10;99.90
13354;DHT22;6746;50.892;4.064;2023-02-28T03:49:57;0.20;99.90
13354;DHT22;6746;50.892;4.064;2023-02-28T03:52:58;0.20;99.90
13354;DHT22;6746;50.892;4.064;2023-02-28T03:55:46;0.20;99.90
13354;DHT22;6746;50.892;4.064;2023-02-28T04:01:27;0.10;99.90
13354;DHT22;6746;50.892;4.064;2023-02-28T04:04:14;0.10;99.90
13354;DHT22;6746;50.892;4.064;2023-02-28T04:06:53;0.10;99.90
13354;DHT22;6746;50.892;4.064;2023-02-28T04:09:41;0.10;99.90
13354;DHT22;6746;50.892;4.064;2023-02-28T04:12:19;0.10;99.90
13354;DHT22;6746;50.892;4.064;2023-02-28T04:14:57;0.00;99.90
13354;DHT22;6746;50.892;4.064;2023-02-28T04:17:45;0.00;99.90
13354;DHT22;6746;50.892;4.064;2023-02-28T04:20:33;0.00;99.90
13354;DHT22;6746;50.892;4.064;2023-02-28T04:23:20;0.00;99.90
13354;DHT22;6746;50.892;4.064;2023-02-28T04:25:58;0.00;99.90
13354;DHT22;6746;50.892;4.064;2023-02-28T04:28:42;0.00;99.90
13354;DHT22;6746;50.892;4.064;2023-02-28T04:31:19;-0.10;99.90
13354;DHT22;6746;50.892;4.064;2023-02-28T04:33:58;-0.10;99.90
13354;DHT22;6746;50.892;4.064;2023-02-28T04:36:36;-0.20;99.90
13354;DHT22;6746;50.892;4.064;2023-02-28T04:39:15;-0.20;99.90
13354;DHT22;6746;50.892;4.064;2023-02-28T04:41:53;-0.20;99.90
13354;DHT22;6746;50.892;4.064;2023-02-28T04:44:38;-0.20;99.90
13354;DHT22;6746;50.892;4.064;2023-02-28T04:47:16;-0.20;99.90
13354;DHT22;6746;50.892;4.064;2023-02-28T04:49:55;-0.20;99.90
13354;DHT22;6746;50.892;4.064;2023-02-28T04:52:33;-0.10;99.90
13354;DHT22;6746;50.892;4.064;2023-02-28T04:55:11;0.00;99.90
13354;DHT22;6746;50.892;4.064;2023-02-28T04:57:49;0.10;99.90
13354;DHT22;6746;50.892;4.064;2023-02-28T05:00:35;0.20;99.90
13354;DHT22;6746;50.892;4.064;2023-02-28T05:03:13;0.20;99.90
13354;DHT22;6746;50.892;4.064;2023-02-28T05:05:59;0.30;99.90
13354;DHT22;6746;50.892;4.064;2023-02-28T05:08:37;0.40;99.90
13354;DHT22;6746;50.892;4.064;2023-02-28T05:11:17;0.40;99.90
13354;DHT22;6746;50.892;4.064;2023-02-28T05:13:54;0.40;99.90
13354;DHT22;6746;50.892;4.064;2023-02-28T05:16:42;0.50;99.90
13354;DHT22;6746;50.892;4.064;2023-02-28T05:19:30;0.50;99.90
13354;DHT22;6746;50.892;4.064;2023-02-28T05:22:18;0.50;99.90
13354;DHT22;6746;50.892;4.064;2023-02-28T05:25:08;0.60;99.90
13354;DHT22;6746;50.892;4.064;2023-02-28T05:27:53;0.60;99.90
13354;DHT22;6746;50.892;4.064;2023-02-28T05:30:31;0.60;99.90
13354;DHT22;6746;50.892;4.064;2023-02-28T05:33:15;0.70;99.90
13354;DHT22;6746;50.892;4.064;2023-02-28T05:35:53;0.70;99.90
13354;DHT22;6746;50.892;4.064;2023-02-28T05:38:41;0.70;99.90
13354;DHT22;6746;50.892;4.064;2023-02-28T05:41:19;0.80;99.90
13354;DHT22;6746;50.892;4.064;2023-02-28T05:43:58;0.80;99.90
13354;DHT22;6746;50.892;4.064;2023-02-28T05:46:36;0.80;99.90
13354;DHT22;6746;50.892;4.064;2023-02-28T05:49:14;0.80;99.90
13354;DHT22;6746;50.892;4.064;2023-02-28T05:51:58;0.80;99.90
13354;DHT22;6746;50.892;4.064;2023-02-28T05:54:36;0.80;99.90
13354;DHT22;6746;50.892;4.064;2023-02-28T05:57:14;0.90;99.90
13354;DHT22;6746;50.892;4.064;2023-02-28T05:59:52;0.80;99.90
13354;DHT22;6746;50.892;4.064;2023-02-28T06:02:40;0.80;99.90
13354;DHT22;6746;50.892;4.064;2023-02-28T06:05:28;0.80;99.90
13354;DHT22;6746;50.892;4.064;2023-02-28T06:08:16;0.80;99.90
13354;DHT22;6746;50.892;4.064;2023-02-28T06:10:55;0.80;99.90
13354;DHT22;6746;50.892;4.064;2023-02-28T06:13:33;0.80;99.90
13354;DHT22;6746;50.892;4.064;2023-02-28T06:16:16;0.90;99.90
13354;DHT22;6746;50.892;4.064;2023-02-28T06:18:56;0.90;99.90
13354;DHT22;6746;50.892;4.064;2023-02-28T06:21:40;0.90;99.90
13354;DHT22;6746;50.892;4.064;2023-02-28T06:24:19;0.90;99.90
13354;DHT22;6746;50.892;4.064;2023-02-28T06:26:59;0.90;99.90
13354;DHT22;6746;50.892;4.064;2023-02-28T06:29:37;1.00;99.90
13354;DHT22;6746;50.892;4.064;2023-02-28T06:32:10;1.00;99.90
13354;DHT22;6746;50.892;4.064;2023-02-28T06:34:39;1.00;99.90
13354;DHT22;6746;50.892;4.064;2023-02-28T06:37:18;1.00;99.90
13354;DHT22;6746;50.892;4.064;2023-02-28T06:39:53;1.00;99.90
13354;DHT22;6746;50.892;4.064;2023-02-28T06:42:21;1.00;99.90
13354;DHT22;6746;50.892;4.064;2023-02-28T06:44:59;1.10;99.90
13354;DHT22;6746;50.892;4.064;2023-02-28T06:47:38;1.10;99.90
13354;DHT22;6746;50.892;4.064;2023-02-28T06:50:15;1.20;99.90
13354;DHT22;6746;50.892;4.064;2023-02-28T06:52:54;1.20;99.90
13354;DHT22;6746;50.892;4.064;2023-02-28T06:55:32;1.20;99.90
13354;DHT22;6746;50.892;4.064;2023-02-28T06:58:10;1.30;99.90
13354;DHT22;6746;50.892;4.064;2023-02-28T07:00:56;1.30;99.90
13354;DHT22;6746;50.892;4.064;2023-02-28T07:03:37;1.30;99.90
13354;DHT22;6746;50.892;4.064;2023-02-28T07:06:15;1.30;99.90
13354;DHT22;6746;50.892;4.064;2023-02-28T07:08:55;1.40;99.90
13354;DHT22;6746;50.892;4.064;2023-02-28T07:11:34;1.40;99.90
13354;DHT22;6746;50.892;4.064;2023-02-28T07:14:12;1.40;99.90
13354;DHT22;6746;50.892;4.064;2023-02-28T07:16:50;1.50;99.90
13354;DHT22;6746;50.892;4.064;2023-02-28T07:19:31;1.50;99.90
13354;DHT22;6746;50.892;4.064;2023-02-28T07:22:19;1.60;99.90
13354;DHT22;6746;50.892;4.064;2023-02-28T07:24:57;1.60;99.90
13354;DHT22;6746;50.892;4.064;2023-02-28T07:27:35;1.70;99.90
13354;DHT22;6746;50.892;4.064;2023-02-28T07:30:06;1.70;99.90
13354;DHT22;6746;50.892;4.064;2023-02-28T07:32:36;1.80;99.90
13354;DHT22;6746;50.892;4.064;2023-02-28T07:35:05;1.90;99.90
13354;DHT22;6746;50.892;4.064;2023-02-28T07:37:35;2.00;99.90
13354;DHT22;6746;50.892;4.064;2023-02-28T07:40:16;2.10;99.90
13354;DHT22;6746;50.892;4.064;2023-02-28T07:42:55;2.10;99.90
13354;DHT22;6746;50.892;4.064;2023-02-28T07:45:42;2.20;99.90
13354;DHT22;6746;50.892;4.064;2023-02-28T07:48:20;2.30;99.90
13354;DHT22;6746;50.892;4.064;2023-02-28T07:50:59;2.30;99.90
13354;DHT22;6746;50.892;4.064;2023-02-28T07:53:27;2.30;99.90
13354;DHT22;6746;50.892;4.064;2023-02-28T07:55:56;2.40;99.90
13354;DHT22;6746;50.892;4.064;2023-02-28T07:58:34;2.40;99.90
13354;DHT22;6746;50.892;4.064;2023-02-28T08:01:12;2.60;99.90
13354;DHT22;6746;50.892;4.064;2023-02-28T08:03:50;2.80;99.90
13354;DHT22;6746;50.892;4.064;2023-02-28T08:06:38;2.80;99.90
13354;DHT22;6746;50.892;4.064;2023-02-28T08:09:17;2.80;99.90
13354;DHT22;6746;50.892;4.064;2023-02-28T08:11:53;2.80;99.90
13354;DHT22;6746;50.892;4.064;2023-02-28T08:14:22;2.80;99.90
13354;DHT22;6746;50.892;4.064;2023-02-28T08:16:59;2.90;99.90
13354;DHT22;6746;50.892;4.064;2023-02-28T08:19:28;2.90;99.90
13354;DHT22;6746;50.892;4.064;2023-02-28T08:22:02;3.00;99.90
13354;DHT22;6746;50.892;4.064;2023-02-28T08:24:31;3.00;99.90
13354;DHT22;6746;50.892;4.064;2023-02-28T08:27:10;3.00;99.90
13354;DHT22;6746;50.892;4.064;2023-02-28T08:29:48;3.10;99.90
13354;DHT22;6746;50.892;4.064;2023-02-28T08:32:20;3.10;99.90
13354;DHT22;6746;50.892;4.064;2023-02-28T08:34:49;3.10;99.90
13354;DHT22;6746;50.892;4.064;2023-02-28T08:37:23;3.10;99.90
13354;DHT22;6746;50.892;4.064;2023-02-28T08:39:52;3.20;99.90
13354;DHT22;6746;50.892;4.064;2023-02-28T08:42:21;3.20;99.90
13354;DHT22;6746;50.892;4.064;2023-02-28T08:44:49;3.30;99.90
13354;DHT22;6746;50.892;4.064;2023-02-28T08:47:21;3.30;99.90
13354;DHT22;6746;50.892;4.064;2023-02-28T08:49:50;3.40;99.90
13354;DHT22;6746;50.892;4.064;2023-02-28T08:52:23;3.40;99.90
13354;DHT22;6746;50.892;4.064;2023-02-28T08:54:55;3.40;99.90
13354;DHT22;6746;50.892;4.064;2023-02-28T08:57:29;3.40;99.90
13354;DHT22;6746;50.892;4.064;2023-02-28T08:59:58;3.50;99.90
13354;DHT22;6746;50.892;4.064;2023-02-28T09:02:32;3.50;99.90
13354;DHT22;6746;50.892;4.064;2023-02-28T09:05:03;3.50;99.90
13354;DHT22;6746;50.892;4.064;2023-02-28T09:07:35;3.70;99.90
13354;DHT22;6746;50.892;4.064;2023-02-28T09:10:16;3.80;99.90
13354;DHT22;6746;50.892;4.064;2023-02-28T09:12:55;3.90;99.90
13354;DHT22;6746;50.892;4.064;2023-02-28T09:15:33;4.00;99.90
13354;DHT22;6746;50.892;4.064;2023-02-28T09:18:12;4.00;99.90
13354;DHT22;6746;50.892;4.064;2023-02-28T09:20:45;4.20;99.90
13354;DHT22;6746;50.892;4.064;2023-02-28T09:23:15;4.20;99.90
13354;DHT22;6746;50.892;4.064;2023-02-28T09:25:52;4.20;99.90
13354;DHT22;6746;50.892;4.064;2023-02-28T09:28:20;4.30;99.90
13354;DHT22;6746;50.892;4.064;2023-02-28T09:30:58;4.40;99.90
13354;DHT22;6746;50.892;4.064;2023-02-28T09:33:27;4.40;99.90
13354;DHT22;6746;50.892;4.064;2023-02-28T09:35:59;4.70;99.90
13354;DHT22;6746;50.892;4.064;2023-02-28T09:38:27;4.90;99.90
13354;DHT22;6746;50.892;4.064;2023-02-28T09:40:58;5.20;99.90
13354;DHT22;6746;50.892;4.064;2023-02-28T09:43:29;5.40;99.90
13354;DHT22;6746;50.892;4.064;2023-02-28T09:46:06;5.30;99.90
13354;DHT22;6746;50.892;4.064;2023-02-28T09:48:44;5.20;99.90
13354;DHT22;6746;50.892;4.064;2023-02-28T09:54:23;5.30;99.90
13354;DHT22;6746;50.892;4.064;2023-02-28T09:57:01;5.30;99.90
13354;DHT22;6746;50.892;4.064;2023-02-28T10:03:05;5.40;99.90
13354;DHT22;6746;50.892;4.064;2023-02-28T10:05:51;5.20;99.90
13354;DHT22;6746;50.892;4.064;2023-02-28T10:08:32;5.10;99.90
13354;DHT22;6746;50.892;4.064;2023-02-28T10:11:15;5.00;99.90
13354;DHT22;6746;50.892;4.064;2023-02-28T10:13:56;5.10;99.90
13354;DHT22;6746;50.892;4.064;2023-02-28T10:16:40;5.00;99.90
13354;DHT22;6746;50.892;4.064;2023-02-28T10:19:17;5.10;99.90
13354;DHT22;6746;50.892;4.064;2023-02-28T10:24:44;5.30;99.90
13354;DHT22;6746;50.892;4.064;2023-02-28T10:27:18;5.30;99.90
13354;DHT22;6746;50.892;4.064;2023-02-28T10:29:50;5.30;99.90
13354;DHT22;6746;50.892;4.064;2023-02-28T10:32:32;5.40;99.90
13354;DHT22;6746;50.892;4.064;2023-02-28T10:37:38;5.40;99.90
13354;DHT22;6746;50.892;4.064;2023-02-28T10:42:56;5.50;99.90
13354;DHT22;6746;50.892;4.064;2023-02-28T10:45:24;5.40;99.90
13354;DHT22;6746;50.892;4.064;2023-02-28T10:48:02;5.30;99.90
13354;DHT22;6746;50.892;4.064;2023-02-28T10:50:35;5.30;99.90
13354;DHT22;6746;50.892;4.064;2023-02-28T10:53:24;5.20;99.90
13354;DHT22;6746;50.892;4.064;2023-02-28T10:58:52;5.30;99.90
13354;DHT22;6746;50.892;4.064;2023-02-28T11:01:41;5.30;99.90
13354;DHT22;6746;50.892;4.064;2023-02-28T11:07:20;5.40;99.90
13354;DHT22;6746;50.892;4.064;2023-02-28T11:10:16;5.40;99.90
13354;DHT22;6746;50.892;4.064;2023-02-28T11:12:47;5.40;99.90
13354;DHT22;6746;50.892;4.064;2023-02-28T11:15:26;5.20;99.90
13354;DHT22;6746;50.892;4.064;2023-02-28T11:18:03;5.20;99.90
13354;DHT22;6746;50.892;4.064;2023-02-28T11:20:31;5.30;99.90
13354;DHT22;6746;50.892;4.064;2023-02-28T11:23:11;5.30;99.90
13354;DHT22;6746;50.892;4.064;2023-02-28T11:25:54;5.40;99.90
13354;DHT22;6746;50.892;4.064;2023-02-28T11:28:32;5.30;99.90
13354;DHT22;6746;50.892;4.064;2023-02-28T11:33:49;5.30;99.90
13354;DHT22;6746;50.892;4.064;2023-02-28T11:36:24;5.30;99.90
13354;DHT22;6746;50.892;4.064;2023-02-28T11:38:56;5.20;99.90
13354;DHT22;6746;50.892;4.064;2023-02-28T11:44:59;5.30;99.90
13354;DHT22;6746;50.892;4.064;2023-02-28T11:51:06;5.40;99.90
13354;DHT22;6746;50.892;4.064;2023-02-28T11:54:22;5.50;99.90
13354;DHT22;6746;50.892;4.064;2023-02-28T12:02:44;5.50;99.90
13354;DHT22;6746;50.892;4.064;2023-02-28T12:12:01;5.40;99.90
13354;DHT22;6746;50.892;4.064;2023-02-28T12:14:59;5.40;99.90
13354;DHT22;6746;50.892;4.064;2023-02-28T12:20:34;5.50;99.90
13354;DHT22;6746;50.892;4.064;2023-02-28T12:26:45;5.60;99.90
13354;DHT22;6746;50.892;4.064;2023-02-28T12:29:10;5.70;99.90
13354;DHT22;6746;50.892;4.064;2023-02-28T12:31:53;5.70;99.90
13354;DHT22;6746;50.892;4.064;2023-02-28T12:34:25;5.80;99.90
13354;DHT22;6746;50.892;4.064;2023-02-28T12:36:55;5.70;99.90
13354;DHT22;6746;50.892;4.064;2023-02-28T12:39:28;5.60;99.90
13354;DHT22;6746;50.892;4.064;2023-02-28T12:42:10;5.60;99.90
13354;DHT22;6746;50.892;4.064;2023-02-28T12:44:46;5.60;99.90
13354;DHT22;6746;50.892;4.064;2023-02-28T12:47:19;5.50;99.90
13354;DHT22;6746;50.892;4.064;2023-02-28T12:50:02;5.60;99.90
13354;DHT22;6746;50.892;4.064;2023-02-28T12:52:35;5.60;99.90
13354;DHT22;6746;50.892;4.064;2023-02-28T12:55:23;5.60;99.90
13354;DHT22;6746;50.892;4.064;2023-02-28T12:57:58;5.70;99.90
13354;DHT22;6746;50.892;4.064;2023-02-28T13:00:25;5.80;99.90
13354;DHT22;6746;50.892;4.064;2023-02-28T13:09:04;6.00;99.90
13354;DHT22;6746;50.892;4.064;2023-02-28T13:11:58;6.00;99.90
13354;DHT22;6746;50.892;4.064;2023-02-28T13:22:38;5.90;99.90
13354;DHT22;6746;50.892;4.064;2023-02-28T13:28:03;5.80;99.90
13354;DHT22;6746;50.892;4.064;2023-02-28T13:38:56;6.00;99.90
13354;DHT22;6746;50.892;4.064;2023-02-28T13:41:41;6.00;99.90
13354;DHT22;6746;50.892;4.064;2023-02-28T13:44:16;6.00;99.90
13354;DHT22;6746;50.892;4.064;2023-02-28T13:49:36;6.00;99.90
13354;DHT22;6746;50.892;4.064;2023-02-28T13:52:18;6.00;99.90
13354;DHT22;6746;50.892;4.064;2023-02-28T14:06:28;6.00;99.90
13354;DHT22;6746;50.892;4.064;2023-02-28T14:11:51;6.10;99.90
13354;DHT22;6746;50.892;4.064;2023-02-28T14:17:26;6.10;99.90
13354;DHT22;6746;50.892;4.064;2023-02-28T14:20:15;6.10;99.90
13354;DHT22;6746;50.892;4.064;2023-02-28T14:32:03;5.90;99.90
13354;DHT22;6746;50.892;4.064;2023-02-28T14:37:15;6.00;99.90
13354;DHT22;6746;50.892;4.064;2023-02-28T14:39:51;6.00;99.90
13354;DHT22;6746;50.892;4.064;2023-02-28T14:44:58;6.10;99.90
13354;DHT22;6746;50.892;4.064;2023-02-28T14:47:34;6.10;99.90
13354;DHT22;6746;50.892;4.064;2023-02-28T14:50:03;6.10;99.90
13354;DHT22;6746;50.892;4.064;2023-02-28T14:52:34;6.00;99.90
13354;DHT22;6746;50.892;4.064;2023-02-28T14:55:04;6.00;99.90
13354;DHT22;6746;50.892;4.064;2023-02-28T14:57:39;6.00;99.90
13354;DHT22;6746;50.892;4.064;2023-02-28T15:00:29;6.00;99.90
13354;DHT22;6746;50.892;4.064;2023-02-28T15:03:00;6.00;99.90
13354;DHT22;6746;50.892;4.064;2023-02-28T15:05:32;6.00;99.90
13354;DHT22;6746;50.892;4.064;2023-02-28T15:08:04;6.00;99.90
13354;DHT22;6746;50.892;4.064;2023-02-28T15:10:32;6.00;99.90
13354;DHT22;6746;50.892;4.064;2023-02-28T15:13:15;6.00;99.90
13354;DHT22;6746;50.892;4.064;2023-02-28T15:18:56;6.10;99.90
13354;DHT22;6746;50.892;4.064;2023-02-28T15:21:38;6.10;99.90
13354;DHT22;6746;50.892;4.064;2023-02-28T15:26:56;6.00;99.90
13354;DHT22;6746;50.892;4.064;2023-02-28T15:29:25;5.90;99.90
13354;DHT22;6746;50.892;4.064;2023-02-28T15:32:06;5.90;99.90
13354;DHT22;6746;50.892;4.064;2023-02-28T15:34:38;5.80;99.90
13354;DHT22;6746;50.892;4.064;2023-02-28T15:37:38;5.80;99.90
13354;DHT22;6746;50.892;4.064;2023-02-28T15:40:12;5.80;99.90
13354;DHT22;6746;50.892;4.064;2023-02-28T15:42:39;5.80;99.90
13354;DHT22;6746;50.892;4.064;2023-02-28T15:48:09;5.80;99.90
13354;DHT22;6746;50.892;4.064;2023-02-28T15:50:47;5.80;99.90
13354;DHT22;6746;50.892;4.064;2023-02-28T15:53:30;5.80;99.90
13354;DHT22;6746;50.892;4.064;2023-02-28T15:56:06;5.80;99.90
13354;DHT22;6746;50.892;4.064;2023-02-28T15:58:36;5.80;99.90
13354;DHT22;6746;50.892;4.064;2023-02-28T16:03:57;5.70;99.90
13354;DHT22;6746;50.892;4.064;2023-02-28T16:06:45;5.70;99.90
13354;DHT22;6746;50.892;4.064;2023-02-28T16:09:35;5.70;99.90
13354;DHT22;6746;50.892;4.064;2023-02-28T16:12:09;5.60;99.90
13354;DHT22;6746;50.892;4.064;2023-02-28T16:14:40;5.60;99.90
13354;DHT22;6746;50.892;4.064;2023-02-28T16:17:26;5.50;99.90
13354;DHT22;6746;50.892;4.064;2023-02-28T16:19:55;5.50;99.90
13354;DHT22;6746;50.892;4.064;2023-02-28T16:22:32;5.50;99.90
13354;DHT22;6746;50.892;4.064;2023-02-28T16:25:14;5.50;99.90
13354;DHT22;6746;50.892;4.064;2023-02-28T16:27:49;5.50;99.90
13354;DHT22;6746;50.892;4.064;2023-02-28T16:30:22;5.40;99.90
13354;DHT22;6746;50.892;4.064;2023-02-28T16:32:49;5.40;99.90
13354;DHT22;6746;50.892;4.064;2023-02-28T16:35:27;5.40;99.90
13354;DHT22;6746;50.892;4.064;2023-02-28T16:38:05;5.40;99.90
13354;DHT22;6746;50.892;4.064;2023-02-28T16:40:35;5.30;99.90
13354;DHT22;6746;50.892;4.064;2023-02-28T16:43:16;5.30;99.90
13354;DHT22;6746;50.892;4.064;2023-02-28T16:45:57;5.30;99.90
13354;DHT22;6746;50.892;4.064;2023-02-28T16:48:35;5.20;99.90
13354;DHT22;6746;50.892;4.064;2023-02-28T16:51:07;5.20;99.90
13354;DHT22;6746;50.892;4.064;2023-02-28T16:53:37;5.20;99.90
13354;DHT22;6746;50.892;4.064;2023-02-28T16:56:18;5.10;99.90
13354;DHT22;6746;50.892;4.064;2023-02-28T16:58:46;5.10;99.90
13354;DHT22;6746;50.892;4.064;2023-02-28T17:01:17;5.00;99.90
13354;DHT22;6746;50.892;4.064;2023-02-28T17:03:46;4.90;99.90
13354;DHT22;6746;50.892;4.064;2023-02-28T17:06:34;4.90;99.90
13354;DHT22;6746;50.892;4.064;2023-02-28T17:09:17;4.90;99.90
13354;DHT22;6746;50.892;4.064;2023-02-28T17:11:54;4.80;99.90
13354;DHT22;6746;50.892;4.064;2023-02-28T17:14:22;4.70;99.90
13354;DHT22;6746;50.892;4.064;2023-02-28T17:16:51;4.70;99.90
13354;DHT22;6746;50.892;4.064;2023-02-28T17:19:22;4.60;99.90
13354;DHT22;6746;50.892;4.064;2023-02-28T17:21:51;4.50;99.90
13354;DHT22;6746;50.892;4.064;2023-02-28T17:24:25;4.50;99.90
13354;DHT22;6746;50.892;4.064;2023-02-28T17:26:54;4.40;99.90
13354;DHT22;6746;50.892;4.064;2023-02-28T17:29:33;4.40;99.90
13354;DHT22;6746;50.892;4.064;2023-02-28T17:32:11;4.30;99.90
13354;DHT22;6746;50.892;4.064;2023-02-28T17:34:47;4.30;99.90
13354;DHT22;6746;50.892;4.064;2023-02-28T17:37:20;4.20;99.90
13354;DHT22;6746;50.892;4.064;2023-02-28T17:39:49;4.10;99.90
13354;DHT22;6746;50.892;4.064;2023-02-28T17:42:18;4.10;99.90
13354;DHT22;6746;50.892;4.064;2023-02-28T17:44:50;3.90;99.90
13354;DHT22;6746;50.892;4.064;2023-02-28T17:47:28;3.90;99.90
13354;DHT22;6746;50.892;4.064;2023-02-28T17:50:19;3.90;99.90
13354;DHT22;6746;50.892;4.064;2023-02-28T17:52:55;3.90;99.90
13354;DHT22;6746;50.892;4.064;2023-02-28T17:55:33;3.80;99.90
13354;DHT22;6746;50.892;4.064;2023-02-28T17:58:11;3.80;99.90
13354;DHT22;6746;50.892;4.064;2023-02-28T18:00:50;3.70;99.90
13354;DHT22;6746;50.892;4.064;2023-02-28T18:03:28;3.60;99.90
13354;DHT22;6746;50.892;4.064;2023-02-28T18:06:06;3.60;99.90
13354;DHT22;6746;50.892;4.064;2023-02-28T18:08:54;3.60;99.90
13354;DHT22;6746;50.892;4.064;2023-02-28T18:11:43;3.60;99.90
13354;DHT22;6746;50.892;4.064;2023-02-28T18:14:33;3.50;99.90
13354;DHT22;6746;50.892;4.064;2023-02-28T18:17:12;3.50;99.90
13354;DHT22;6746;50.892;4.064;2023-02-28T18:19:51;3.50;99.90
13354;DHT22;6746;50.892;4.064;2023-02-28T18:22:39;3.50;99.90
13354;DHT22;6746;50.892;4.064;2023-02-28T18:25:22;3.40;99.90
13354;DHT22;6746;50.892;4.064;2023-02-28T18:28:02;3.30;99.90
13354;DHT22;6746;50.892;4.064;2023-02-28T18:30:50;3.30;99.90
13354;DHT22;6746;50.892;4.064;2023-02-28T18:33:38;3.20;99.90
13354;DHT22;6746;50.892;4.064;2023-02-28T18:36:26;3.30;99.90
13354;DHT22;6746;50.892;4.064;2023-02-28T18:39:14;3.20;99.90
13354;DHT22;6746;50.892;4.064;2023-02-28T18:42:02;3.10;99.90
13354;DHT22;6746;50.892;4.064;2023-02-28T18:44:41;3.10;99.90
13354;DHT22;6746;50.892;4.064;2023-02-28T18:47:19;3.10;99.90
13354;DHT22;6746;50.892;4.064;2023-02-28T18:49:57;3.10;99.90
13354;DHT22;6746;50.892;4.064;2023-02-28T18:52:36;3.10;99.90
13354;DHT22;6746;50.892;4.064;2023-02-28T18:55:24;3.10;99.90
13354;DHT22;6746;50.892;4.064;2023-02-28T18:58:02;3.20;99.90
13354;DHT22;6746;50.892;4.064;2023-02-28T19:00:40;3.10;99.90
13354;DHT22;6746;50.892;4.064;2023-02-28T19:03:20;3.10;99.90
13354;DHT22;6746;50.892;4.064;2023-02-28T19:05:58;3.10;99.90
13354;DHT22;6746;50.892;4.064;2023-02-28T19:11:18;3.00;99.90
13354;DHT22;6746;50.892;4.064;2023-02-28T19:13:56;2.90;99.90
13354;DHT22;6746;50.892;4.064;2023-02-28T19:16:39;2.90;99.90
13354;DHT22;6746;50.892;4.064;2023-02-28T19:19:17;2.90;99.90
13354;DHT22;6746;50.892;4.064;2023-02-28T19:21:55;2.80;99.90
13354;DHT22;6746;50.892;4.064;2023-02-28T19:24:33;2.80;99.90
13354;DHT22;6746;50.892;4.064;2023-02-28T19:27:19;2.80;99.90
13354;DHT22;6746;50.892;4.064;2023-02-28T19:29:58;2.80;99.90
13354;DHT22;6746;50.892;4.064;2023-02-28T19:32:38;2.80;99.90
13354;DHT22;6746;50.892;4.064;2023-02-28T19:35:19;2.80;99.90
13354;DHT22;6746;50.892;4.064;2023-02-28T19:38:07;2.80;99.90
13354;DHT22;6746;50.892;4.064;2023-02-28T19:41:03;2.70;99.90
13354;DHT22;6746;50.892;4.064;2023-02-28T19:43:51;2.70;99.90
13354;DHT22;6746;50.892;4.064;2023-02-28T19:46:29;2.60;99.90
13354;DHT22;6746;50.892;4.064;2023-02-28T19:49:07;2.60;99.90
13354;DHT22;6746;50.892;4.064;2023-02-28T19:51:50;2.60;99.90
13354;DHT22;6746;50.892;4.064;2023-02-28T19:54:30;2.60;99.90
13354;DHT22;6746;50.892;4.064;2023-02-28T19:57:08;2.50;99.90
13354;DHT22;6746;50.892;4.064;2023-02-28T19:59:47;2.50;99.90